Aura, New Jersey
Current Conditions -  °F | °C
As of 7:54 PM on Tuesday 27 Jan 2015 (Local Time) from KPHL Reporting Station
Broken Clouds Broken Clouds  
Wind Chill: 19°   Ceiling: 16000
Heat Index: 30°   Visibility: 10mi
Dew Point:   Wind: 16mph
Humidity: 38%   Direction: 340°NNW
Pressure: 29.82"   Gusts: NA
Location:  39.6996°N, 75.1187°W
Report Text: KPHL 280054Z 34014KT 10SM BKN160 BKN250 M01/M14 A2982 RMK AO2 SLP096 T10111139 $
Loading
Personal Weather Stations






























Interactive Weather Map New forecast layout! Learn more

10-Day Weather Forecast

Advertisements
Track Severe Weather on mobile